Messwerte Beaufort

Temperatur

Temperatur
°C
1573635600 4.00 4.00 1
1573639200 5.00 5.00 0
1573642800 6.00 6.00 0
1573646400 7.00 7.00 0
1573650000 8.00 8.00 2
1573653600 9.00 9.00 3
1573657200 10.00 10.00 5
1573660800 11.00 11.00 6
1573664400 12.00 12.00 6
1573668000 13.00 13.00 6
1573671600 14.00 14.00 6
1573675200 15.00 15.00 6
1573678800 16.00 16.00 5
1573682400 17.00 17.00 4
1573686000 18.00 18.00 3
1573689600 19.00 19.00 2
1573693200 20.00 20.00 1
1573696800 21.00 21.00 2
1573700400 22.00 22.00 2
1573704000 23.00 23.00 2
1573707600 0.00 0.00 2
1573711200 1.00 1.00 2
1573714800 2.00 2.00 2
1573718400 3.00 3.00 2

Aktuellste Messwerte

Wettercharakter
Wetter: klar
Temperatur
3 °C
Feuchtigkeit
85 %
Luftdruck
1028 hPa
Messzeit: 14. November 2019, 4.00Datenquelle: METAR

Weitere Messstationen in der Nähe

Messstation Temperatur Entfernung
Cherry Point 2 °C 24 km
New Bern -1 °C 52 km
Jacksonville -1 °C 71 km
Jacksonville -2 °C 87 km
Washington -2 °C 100 km
Kinston -3 °C 109 km
Hatteras 8 °C 110 km

Wind

Windrichtung Böen Mittelwind
° km/h km/h
1573635600 4.00 3.00 - 4.00 350° 40 30
1573639200 5.00 4.00 - 5.00
1573642800 6.00 5.00 - 6.00
1573646400 7.00 6.00 - 7.00
1573650000 8.00 7.00 - 8.00
1573653600 9.00 8.00 - 9.00
1573657200 10.00 9.00 - 10.00 20° 45 30
1573660800 11.00 10.00 - 11.00 20° 45 25
1573664400 12.00 11.00 - 12.00 40° 45 30
1573668000 13.00 12.00 - 13.00
1573671600 14.00 13.00 - 14.00 20° 25
1573675200 15.00 14.00 - 15.00 10° 20
1573678800 16.00 15.00 - 16.00 40° 30 20
1573682400 17.00 16.00 - 17.00 30° 15
1573686000 18.00 17.00 - 18.00 40° 15
1573689600 19.00 18.00 - 19.00 20° 15
1573693200 20.00 19.00 - 20.00
1573696800 21.00 20.00 - 21.00
1573700400 22.00 21.00 - 22.00
1573704000 23.00 22.00 - 23.00
1573707600 0.00 23.00 - 0.00
1573711200 1.00 0.00 - 1.00
1573714800 2.00 1.00 - 2.00
1573718400 3.00 2.00 - 3.00

Ihre Wetterstation

Fehlt Ihre Wetterstation auf unserem Portal?

Schreiben Sie an network@meteonews.ch

Klima

Wann ist es am wärmsten? Wann regnet es am wenigsten? Unsere Klimadaten geben Auskunft.